Time;durP1;ratioP1;P1;durP2;ratioP2;P2;SDS_P1;SDS_P2;PMS_P1;PMS_P2;Temp;Humidity;BMP_temperature;BMP_pressure;BME280_temperature;BME280_humidity;BME280_pressure;Samples;Min_cycle;Max_cycle;Signal;HPM_P1;HPM_P2
2023/06/11 00:00:20;;;;;;;6.53;5.90;;;29.60;45.10;;;;;;5089516;28;20439;-78
2023/06/11 00:02:54;;;;;;;12.10;6.83;;;29.50;45.10;;;;;;5089461;28;20482;-78
2023/06/11 00:05:24;;;;;;;6.07;5.53;;;29.50;45.10;;;;;;5088193;28;20407;-78
2023/06/11 00:07:52;;;;;;;8.40;5.90;;;29.60;45.10;;;;;;5086034;28;20514;-78
2023/06/11 00:10:20;;;;;;;9.43;6.43;;;29.60;45.00;;;;;;5087931;28;20495;-78
2023/06/11 00:12:48;;;;;;;8.07;6.67;;;29.60;45.00;;;;;;5091353;28;20477;-78
2023/06/11 00:15:16;;;;;;;7.03;6.43;;;29.50;44.90;;;;;;5085293;28;20459;-79
2023/06/11 00:17:45;;;;;;;7.27;6.57;;;29.50;45.00;;;;;;5090900;28;20415;-79
2023/06/11 00:20:13;;;;;;;8.83;6.30;;;29.40;45.10;;;;;;5090100;28;20473;-79
2023/06/11 00:22:43;;;;;;;8.23;6.47;;;29.30;44.90;;;;;;5090620;28;21109;-78
2023/06/11 00:25:11;;;;;;;11.13;6.13;;;29.30;45.20;;;;;;5081436;28;20433;-79
2023/06/11 00:27:40;;;;;;;7.00;6.30;;;29.30;45.10;;;;;;5081799;28;20436;-79
2023/06/11 00:30:08;;;;;;;8.70;6.60;;;29.30;45.20;;;;;;5089541;28;20437;-80
2023/06/11 00:32:36;;;;;;;8.20;6.43;;;29.30;45.00;;;;;;5090351;28;20433;-79
2023/06/11 00:35:06;;;;;;;8.20;6.30;;;29.20;45.20;;;;;;5089427;28;20506;-78
2023/06/11 00:37:35;;;;;;;7.43;6.70;;;29.20;45.30;;;;;;5083751;28;20552;-78
2023/06/11 00:40:07;;;;;;;6.43;5.90;;;29.20;45.20;;;;;;5089213;28;20464;-77
2023/06/11 00:42:36;;;;;;;7.87;6.70;;;29.20;45.30;;;;;;5090490;28;20451;-79
2023/06/11 00:45:06;;;;;;;8.20;6.50;;;29.20;45.30;;;;;;5089809;28;20444;-77
2023/06/11 00:47:36;;;;;;;6.83;6.10;;;29.20;45.20;;;;;;5089857;28;20477;-78
2023/06/11 00:50:06;;;;;;;6.70;6.10;;;29.20;45.40;;;;;;5084090;28;20440;-79
2023/06/11 00:52:35;;;;;;;7.40;6.40;;;29.20;45.30;;;;;;5075326;28;20560;-78
2023/06/11 00:55:05;;;;;;;6.33;5.70;;;29.10;45.20;;;;;;5075006;28;20529;-78
2023/06/11 00:57:35;;;;;;;10.10;6.37;;;29.10;45.60;;;;;;5074911;28;20408;-78
2023/06/11 01:00:10;;;;;;;7.70;6.40;;;29.00;45.60;;;;;;5075066;28;20479;-78
2023/06/11 01:02:40;;;;;;;8.00;6.80;;;29.00;45.60;;;;;;5074716;28;20931;-78
2023/06/11 01:05:09;;;;;;;6.67;5.97;;;29.00;45.60;;;;;;5066870;28;20507;-78
2023/06/11 01:07:41;;;;;;;9.30;6.53;;;29.00;45.80;;;;;;5063913;28;20417;-78
2023/06/11 01:10:11;;;;;;;7.73;6.93;;;29.10;45.70;;;;;;5068243;28;20429;-79
2023/06/11 01:12:39;;;;;;;7.43;6.83;;;29.10;45.40;;;;;;5074635;28;20447;-78
2023/06/11 01:15:13;;;;;;;7.13;6.53;;;29.20;45.60;;;;;;5074727;28;20455;-78
2023/06/11 01:17:42;;;;;;;8.87;6.60;;;29.00;45.10;;;;;;5074653;28;20468;-79
2023/06/11 01:24:04;;;;;;;7.20;6.50;;;28.90;45.40;;;;;;5066750;28;20387;-79
2023/06/11 01:26:42;;;;;;;7.40;6.70;;;28.90;45.60;;;;;;5068679;28;20452;-79
2023/06/11 01:29:11;;;;;;;7.33;6.10;;;28.90;45.50;;;;;;5074280;28;20404;-78
2023/06/11 01:31:41;;;;;;;7.00;6.40;;;28.90;45.50;;;;;;5074072;28;20512;-78
2023/06/11 01:34:09;;;;;;;7.03;6.33;;;28.90;45.40;;;;;;5074444;28;20513;-79
2023/06/11 01:36:39;;;;;;;8.67;6.50;;;29.00;45.70;;;;;;5074301;28;20474;-79
2023/06/11 01:39:08;;;;;;;7.07;6.40;;;29.00;45.30;;;;;;5074222;28;20443;-79
2023/06/11 01:41:36;;;;;;;7.07;6.37;;;29.00;45.30;;;;;;5074160;28;20469;-79
2023/06/11 01:44:05;;;;;;;7.07;6.40;;;28.90;45.20;;;;;;5073323;28;20422;-78
2023/06/11 01:46:34;;;;;;;9.13;6.37;;;29.00;45.40;;;;;;5073928;28;20408;-79
2023/06/11 01:49:02;;;;;;;9.20;5.83;;;29.00;45.20;;;;;;5056653;28;20500;-78
2023/06/11 01:51:30;;;;;;;7.03;6.03;;;28.90;44.70;;;;;;5068421;28;20529;-79
2023/06/11 01:53:58;;;;;;;7.03;5.90;;;28.80;45.00;;;;;;5074328;28;20544;-79
2023/06/11 01:56:27;;;;;;;7.80;6.23;;;28.70;45.20;;;;;;5075868;28;20438;-80
2023/06/11 01:58:57;;;;;;;7.97;6.13;;;28.70;45.00;;;;;;5073942;28;20537;-79
2023/06/11 02:01:28;;;;;;;6.23;5.50;;;28.70;45.10;;;;;;5073258;28;20466;-78
2023/06/11 02:03:58;;;;;;;9.40;6.47;;;28.70;44.70;;;;;;5074065;28;20476;-78
2023/06/11 02:06:26;;;;;;;10.00;6.47;;;28.70;44.70;;;;;;5074668;28;20499;-79
2023/06/11 02:08:54;;;;;;;7.50;6.50;;;28.70;44.60;;;;;;5075837;28;20404;-79
2023/06/11 02:11:21;;;;;;;7.33;5.73;;;28.70;44.70;;;;;;5068539;28;20448;-80
2023/06/11 02:13:49;;;;;;;6.30;5.80;;;28.70;44.40;;;;;;5067630;28;20436;-79
2023/06/11 02:16:17;;;;;;;6.73;5.67;;;28.70;44.40;;;;;;5074804;28;20496;-79
2023/06/11 02:18:45;;;;;;;19.97;6.30;;;28.70;44.40;;;;;;5075857;28;20413;-79
2023/06/11 02:21:15;;;;;;;6.50;5.87;;;28.60;44.40;;;;;;5075338;28;20469;-79
2023/06/11 02:23:43;;;;;;;10.03;5.77;;;28.60;44.10;;;;;;5075182;28;20545;-80
2023/06/11 02:26:11;;;;;;;11.50;5.80;;;28.60;44.20;;;;;;5075028;28;20472;-79
2023/06/11 02:28:39;;;;;;;11.30;5.53;;;28.60;44.00;;;;;;5073320;28;20412;-79
2023/06/11 02:31:07;;;;;;;7.70;5.93;;;28.60;43.60;;;;;;5067367;28;20443;-78
2023/06/11 02:33:34;;;;;;;6.90;6.30;;;28.40;43.70;;;;;;5071952;28;20497;-79
2023/06/11 02:36:02;;;;;;;8.47;7.60;;;28.40;43.60;;;;;;5073072;28;20516;-78
2023/06/11 02:38:31;;;;;;;9.10;8.20;;;28.40;43.40;;;;;;5056161;28;20469;-78
2023/06/11 02:40:59;;;;;;;8.80;6.90;;;28.30;43.30;;;;;;5065118;28;20548;-79
2023/06/11 02:43:27;;;;;;;12.53;5.97;;;28.30;43.20;;;;;;5072368;28;20440;-80
2023/06/11 02:45:55;;;;;;;10.50;5.60;;;28.30;43.20;;;;;;5066807;28;20469;-78
2023/06/11 02:48:23;;;;;;;9.30;6.00;;;28.20;42.90;;;;;;5072748;28;20416;-78
2023/06/11 02:50:51;;;;;;;6.80;5.50;;;28.20;42.80;;;;;;5062091;28;20449;-79
2023/06/11 02:53:19;;;;;;;8.53;5.53;;;28.20;42.80;;;;;;5060135;28;20483;-79
2023/06/11 02:55:48;;;;;;;7.07;5.03;;;28.30;42.60;;;;;;5072786;28;20570;-78
2023/06/11 02:58:16;;;;;;;8.23;5.80;;;28.20;42.40;;;;;;5072122;28;20453;-79
2023/06/11 03:00:45;;;;;;;7.43;4.63;;;28.20;42.40;;;;;;5069292;28;20462;-78
2023/06/11 03:03:13;;;;;;;6.07;5.30;;;28.20;42.00;;;;;;5063896;28;20432;-78
2023/06/11 03:05:41;;;;;;;7.30;5.50;;;28.10;42.20;;;;;;5070875;28;20950;-79
2023/06/11 03:08:09;;;;;;;17.83;6.50;;;28.20;42.00;;;;;;5068432;28;20432;-79
2023/06/11 03:10:36;;;;;;;11.10;5.33;;;28.10;41.90;;;;;;5068260;28;20481;-79
2023/06/11 03:13:06;;;;;;;7.00;5.50;;;28.10;41.90;;;;;;5075965;28;20485;-77
2023/06/11 03:15:34;;;;;;;12.43;5.30;;;28.00;41.60;;;;;;5065501;28;20408;-78
2023/06/11 03:18:03;;;;;;;5.80;5.30;;;27.80;41.60;;;;;;5073020;28;20493;-79
2023/06/11 03:20:31;;;;;;;7.10;5.23;;;27.80;41.50;;;;;;5071527;28;20470;-78
2023/06/11 03:22:58;;;;;;;5.83;5.23;;;27.80;41.90;;;;;;5072925;28;20428;-78
2023/06/11 03:25:27;;;;;;;9.67;5.70;;;27.90;41.60;;;;;;5072805;28;20483;-78
2023/06/11 03:27:54;;;;;;;7.77;5.00;;;27.90;41.70;;;;;;5064958;28;20574;-79
2023/06/11 03:30:24;;;;;;;7.67;5.23;;;27.90;41.20;;;;;;5073070;28;20434;-79
2023/06/11 03:32:52;;;;;;;5.80;4.97;;;28.00;41.50;;;;;;5072169;28;20500;-78
2023/06/11 03:35:19;;;;;;;15.60;5.13;;;28.00;41.20;;;;;;5065107;28;20452;-78
2023/06/11 03:37:47;;;;;;;8.97;5.20;;;28.00;41.00;;;;;;5063619;28;20545;-79
2023/06/11 03:40:16;;;;;;;6.97;4.97;;;28.00;41.00;;;;;;5072303;28;20537;-78
2023/06/11 03:42:44;;;;;;;8.97;4.90;;;27.90;40.80;;;;;;5070364;28;20457;-78
2023/06/11 03:45:12;;;;;;;5.17;4.17;;;28.00;40.70;;;;;;5066238;28;20401;-79
2023/06/11 03:47:42;;;;;;;6.23;4.90;;;27.90;40.60;;;;;;5072073;28;20442;-79
2023/06/11 03:50:12;;;;;;;6.77;5.00;;;27.90;40.30;;;;;;5072081;28;20425;-78
2023/06/11 03:52:40;;;;;;;9.63;4.87;;;27.80;40.20;;;;;;5063347;28;20844;-78
2023/06/11 03:55:09;;;;;;;10.73;4.73;;;27.80;40.10;;;;;;5072095;28;20923;-79
2023/06/11 03:57:38;;;;;;;6.43;4.10;;;27.80;40.60;;;;;;5055573;28;20472;-79
2023/06/11 04:00:07;;;;;;;7.47;3.90;;;27.80;40.00;;;;;;5071841;28;20504;-79
2023/06/11 04:02:35;;;;;;;7.30;4.70;;;27.60;39.80;;;;;;5072241;28;20988;-78
2023/06/11 04:05:05;;;;;;;4.40;4.00;;;27.60;40.40;;;;;;5072324;28;20462;-78
2023/06/11 04:07:35;;;;;;;8.97;4.23;;;27.70;40.10;;;;;;5063343;28;20470;-78
2023/06/11 04:10:04;;;;;;;5.67;4.53;;;27.60;39.90;;;;;;5071688;28;20450;-78
2023/06/11 04:12:32;;;;;;;5.77;4.50;;;27.70;40.20;;;;;;5072517;28;20524;-79
2023/06/11 04:15:00;;;;;;;6.43;4.40;;;27.70;39.60;;;;;;5072742;28;20408;-78
2023/06/11 04:17:28;;;;;;;6.30;4.50;;;27.70;39.60;;;;;;5064092;28;20432;-78
2023/06/11 04:19:56;;;;;;;7.50;4.30;;;27.70;39.40;;;;;;5071564;28;20430;-78
2023/06/11 04:22:25;;;;;;;9.10;4.97;;;27.70;39.50;;;;;;5071733;28;20424;-78
2023/06/11 04:24:53;;;;;;;11.37;4.37;;;27.70;39.00;;;;;;5066270;28;20531;-77
2023/06/11 04:27:21;;;;;;;8.00;4.37;;;27.70;39.20;;;;;;5075231;28;20529;-77
2023/06/11 04:29:52;;;;;;;4.80;4.20;;;27.70;39.60;;;;;;5075262;28;20865;-77
2023/06/11 04:32:20;;;;;;;5.30;4.07;;;27.50;38.80;;;;;;5066887;28;21059;-78
2023/06/11 04:34:49;;;;;;;5.23;3.97;;;27.50;39.50;;;;;;5075385;28;20465;-77
2023/06/11 04:37:17;;;;;;;4.73;4.20;;;27.60;39.30;;;;;;5076544;28;20512;-78
2023/06/11 04:39:47;;;;;;;4.20;3.80;;;27.60;39.30;;;;;;5076354;28;20434;-77
2023/06/11 04:42:16;;;;;;;5.60;4.30;;;27.40;39.10;;;;;;5070052;28;20497;-78
2023/06/11 04:44:47;;;;;;;4.20;3.80;;;27.40;39.40;;;;;;5075897;28;20428;-78
2023/06/11 04:47:15;;;;;;;9.57;4.30;;;27.40;39.20;;;;;;5075214;28;20495;-78
2023/06/11 04:49:44;;;;;;;7.20;4.03;;;27.50;39.30;;;;;;5074987;28;20519;-78
2023/06/11 04:52:12;;;;;;;10.67;4.23;;;27.60;39.20;;;;;;5075072;28;20959;-77
2023/06/11 04:54:41;;;;;;;6.40;4.53;;;27.60;38.70;;;;;;5075272;28;20420;-78
2023/06/11 04:57:11;;;;;;;8.80;4.43;;;27.50;38.90;;;;;;5074154;28;20428;-77
2023/06/11 04:59:39;;;;;;;4.43;4.03;;;27.40;38.90;;;;;;5075629;28;20420;-77
2023/06/11 05:02:07;;;;;;;5.90;4.00;;;27.50;39.20;;;;;;5074897;28;20465;-77
2023/06/11 05:04:37;;;;;;;7.17;4.13;;;27.50;38.80;;;;;;5069054;28;20453;-76
2023/06/11 05:07:07;;;;;;;4.60;4.07;;;27.50;39.20;;;;;;5075018;28;20508;-77
2023/06/11 05:09:35;;;;;;;6.60;3.77;;;27.50;39.00;;;;;;5070868;28;20811;-78
2023/06/11 05:12:05;;;;;;;3.90;3.60;;;27.50;38.90;;;;;;5066001;28;20474;-76
2023/06/11 05:14:34;;;;;;;5.00;4.17;;;27.40;38.80;;;;;;5074836;28;20492;-77
2023/06/11 05:17:03;;;;;;;9.73;3.90;;;27.50;39.00;;;;;;5066551;28;20866;-78
2023/06/11 05:19:31;;;;;;;5.47;4.10;;;27.50;39.00;;;;;;5074160;28;20420;-78
2023/06/11 05:21:59;;;;;;;4.03;3.63;;;27.60;38.90;;;;;;5074112;28;20508;-78
2023/06/11 05:24:29;;;;;;;6.80;4.17;;;27.60;38.90;;;;;;5074309;28;20465;-77
2023/06/11 05:26:59;;;;;;;8.60;4.17;;;27.60;38.50;;;;;;5074488;28;20525;-76
2023/06/11 05:29:27;;;;;;;5.40;3.70;;;27.50;38.80;;;;;;5067267;28;20477;-76
2023/06/11 05:31:57;;;;;;;5.10;3.97;;;27.50;38.80;;;;;;5073050;28;20529;-77
2023/06/11 05:34:25;;;;;;;9.30;3.77;;;27.50;39.00;;;;;;5074103;28;20466;-77
2023/06/11 05:36:54;;;;;;;7.20;4.10;;;27.60;38.90;;;;;;5074010;28;20416;-78
2023/06/11 05:39:22;;;;;;;6.27;4.40;;;27.50;38.80;;;;;;5068361;28;20468;-77
2023/06/11 05:41:50;;;;;;;4.73;4.27;;;27.50;38.80;;;;;;5072593;28;20537;-78
2023/06/11 05:44:18;;;;;;;8.90;3.97;;;27.60;39.30;;;;;;5076904;28;20420;-78
2023/06/11 05:46:46;;;;;;;8.17;4.37;;;27.60;38.90;;;;;;5075810;28;20480;-79
2023/06/11 05:49:16;;;;;;;8.40;4.07;;;27.60;39.10;;;;;;5072959;28;20503;-79
2023/06/11 05:51:44;;;;;;;6.57;3.77;;;27.70;39.10;;;;;;5072227;28;20481;-77
2023/06/11 05:54:11;;;;;;;9.70;3.73;;;27.60;39.20;;;;;;5060029;28;20507;-79
2023/06/11 05:56:39;;;;;;;8.73;4.53;;;27.70;39.00;;;;;;5076065;28;20484;-79
2023/06/11 05:59:08;;;;;;;12.40;4.07;;;27.80;39.40;;;;;;5063950;28;20766;-79
2023/06/11 06:01:36;;;;;;;8.67;3.57;;;27.90;38.90;;;;;;5072325;28;20497;-79
2023/06/11 06:04:05;;;;;;;12.43;4.17;;;27.90;39.00;;;;;;5065147;28;20420;-78
2023/06/11 06:06:35;;;;;;;4.73;3.57;;;27.90;38.80;;;;;;5075872;28;20492;-79
2023/06/11 06:09:03;;;;;;;10.33;3.80;;;28.00;39.20;;;;;;5067012;28;20404;-79
2023/06/11 06:11:31;;;;;;;5.97;4.47;;;28.00;39.00;;;;;;5075563;28;20499;-79
2023/06/11 06:13:59;;;;;;;12.73;3.97;;;28.00;39.30;;;;;;5074541;28;20496;-77
2023/06/11 06:16:27;;;;;;;7.10;3.90;;;28.00;38.40;;;;;;5073415;28;20541;-78
2023/06/11 06:18:55;;;;;;;10.63;3.80;;;27.90;38.60;;;;;;5073481;28;20433;-77
2023/06/11 06:21:23;;;;;;;4.77;3.83;;;27.90;39.00;;;;;;5073304;28;20564;-78
2023/06/11 06:23:53;;;;;;;7.03;4.47;;;28.00;39.20;;;;;;5069625;28;20489;-79
2023/06/11 06:26:22;;;;;;;7.20;3.97;;;28.10;39.00;;;;;;5074704;28;20437;-79
2023/06/11 06:28:52;;;;;;;6.60;4.10;;;28.00;38.60;;;;;;5074367;28;20468;-78
2023/06/11 06:31:22;;;;;;;9.00;4.07;;;28.10;39.40;;;;;;5073266;28;20453;-77
2023/06/11 06:33:51;;;;;;;6.83;3.90;;;28.10;39.20;;;;;;5072736;28;20462;-78
2023/06/11 06:36:20;;;;;;;9.90;3.73;;;28.20;38.90;;;;;;5071730;28;20441;-79
2023/06/11 06:38:48;;;;;;;5.17;3.83;;;28.30;39.20;;;;;;5073441;28;20462;-78
2023/06/11 06:41:18;;;;;;;7.60;4.03;;;28.30;39.10;;;;;;5073563;28;20480;-78
2023/06/11 06:43:46;;;;;;;4.37;3.60;;;28.40;39.10;;;;;;5065534;28;20433;-77
2023/06/11 06:46:14;;;;;;;10.27;6.10;;;28.40;38.80;;;;;;5073495;28;20419;-79
2023/06/11 06:48:42;;;;;;;7.33;5.77;;;28.40;38.80;;;;;;5073536;28;20499;-78
2023/06/11 06:51:10;;;;;;;7.53;6.17;;;28.50;38.90;;;;;;5068907;28;20421;-77
2023/06/11 06:53:39;;;;;;;7.67;6.70;;;28.60;38.70;;;;;;5061139;28;20429;-79
2023/06/11 06:56:07;;;;;;;12.83;6.70;;;28.60;38.70;;;;;;5072950;28;20449;-78
2023/06/11 06:58:38;;;;;;;11.40;6.23;;;28.60;38.70;;;;;;5073568;28;20469;-78
2023/06/11 07:01:05;;;;;;;10.60;5.77;;;28.70;38.90;;;;;;5069711;28;20427;-78
2023/06/11 07:03:34;;;;;;;7.77;6.60;;;28.80;38.80;;;;;;5059009;28;20480;-78
2023/06/11 07:06:02;;;;;;;13.40;8.60;;;28.80;38.70;;;;;;5072963;28;20538;-79
2023/06/11 07:08:30;;;;;;;13.23;7.33;;;28.80;38.70;;;;;;5072754;28;20423;-77
2023/06/11 07:10:58;;;;;;;9.00;6.53;;;28.90;38.90;;;;;;5072609;28;20499;-78
2023/06/11 07:13:27;;;;;;;6.43;5.83;;;29.00;38.60;;;;;;5067206;28;20489;-79
2023/06/11 07:15:56;;;;;;;11.60;7.47;;;29.10;38.70;;;;;;5071745;28;20450;-79
2023/06/11 07:18:27;;;;;;;10.60;6.20;;;29.20;38.50;;;;;;5073991;28;20446;-78
2023/06/11 07:20:55;;;;;;;5.87;5.27;;;29.20;38.40;;;;;;5073271;28;20442;-78
2023/06/11 07:23:24;;;;;;;6.63;5.23;;;29.30;38.40;;;;;;5072701;28;20448;-78
2023/06/11 07:25:51;;;;;;;12.10;6.00;;;29.30;38.20;;;;;;5070088;28;20515;-78
2023/06/11 07:28:20;;;;;;;8.70;5.27;;;29.40;38.90;;;;;;5073446;28;20433;-78
2023/06/11 07:30:48;;;;;;;9.17;4.80;;;29.50;38.60;;;;;;5071980;28;20489;-78
2023/06/11 07:33:18;;;;;;;8.93;5.60;;;29.50;38.60;;;;;;5072200;28;20901;-79
2023/06/11 07:35:48;;;;;;;8.83;5.70;;;29.60;38.30;;;;;;5073228;28;20480;-78
2023/06/11 07:38:17;;;;;;;7.50;6.70;;;29.50;38.30;;;;;;5068189;28;20432;-78
2023/06/11 07:40:45;;;;;;;11.30;5.50;;;29.50;37.90;;;;;;5072361;28;20444;-78
2023/06/11 07:43:13;;;;;;;8.37;5.33;;;29.60;38.50;;;;;;5066136;28;20555;-77
2023/06/11 07:45:43;;;;;;;7.83;5.50;;;29.70;38.50;;;;;;5072008;28;20475;-77
2023/06/11 07:48:11;;;;;;;10.67;5.73;;;29.70;38.30;;;;;;5064022;28;20477;-78
2023/06/11 07:50:41;;;;;;;7.53;6.13;;;29.70;38.20;;;;;;5071988;28;20417;-78
2023/06/11 07:53:12;;;;;;;6.70;6.03;;;29.80;37.80;;;;;;5061031;28;20503;-77
2023/06/11 07:55:41;;;;;;;10.73;5.97;;;29.80;37.70;;;;;;5071547;28;20449;-78
2023/06/11 07:58:09;;;;;;;10.90;5.97;;;29.90;38.30;;;;;;5071542;28;20434;-79
2023/06/11 08:00:37;;;;;;;6.73;5.57;;;30.00;37.70;;;;;;5068201;28;20454;-78
2023/06/11 08:03:05;;;;;;;7.17;6.10;;;29.90;38.40;;;;;;5075921;28;20526;-79
2023/06/11 08:05:33;;;;;;;9.47;5.67;;;30.00;38.00;;;;;;5074567;28;20511;-80
2023/06/11 08:08:02;;;;;;;6.93;5.67;;;30.20;37.80;;;;;;5068109;28;20412;-79
2023/06/11 08:10:31;;;;;;;7.33;5.87;;;30.30;37.90;;;;;;5075776;28;20433;-80
2023/06/11 08:12:59;;;;;;;7.13;5.60;;;30.30;37.70;;;;;;5075134;28;20981;-78
2023/06/11 08:15:28;;;;;;;7.93;6.00;;;30.40;37.70;;;;;;5075479;28;20420;-79
2023/06/11 08:17:56;;;;;;;10.40;5.83;;;30.40;37.20;;;;;;5074623;28;20442;-78
2023/06/11 08:20:25;;;;;;;12.63;6.60;;;30.50;37.60;;;;;;5072834;28;20453;-78
2023/06/11 08:22:53;;;;;;;8.13;6.40;;;30.30;37.80;;;;;;5075778;28;20505;-78
2023/06/11 08:25:24;;;;;;;6.57;5.87;;;30.50;38.00;;;;;;5075863;28;20484;-79
2023/06/11 08:27:52;;;;;;;11.87;6.40;;;30.60;37.50;;;;;;5068649;28;20442;-79
2023/06/11 08:30:20;;;;;;;11.07;5.93;;;30.70;37.30;;;;;;5075059;28;20442;-79
2023/06/11 08:32:48;;;;;;;7.40;5.60;;;30.80;36.90;;;;;;5075241;28;20456;-79
2023/06/11 08:35:16;;;;;;;5.73;5.23;;;30.90;37.20;;;;;;5074441;28;20508;-78
2023/06/11 08:37:44;;;;;;;6.63;6.13;;;31.00;37.20;;;;;;5075694;28;20473;-79
2023/06/11 08:40:13;;;;;;;5.93;5.53;;;31.10;37.50;;;;;;5076649;28;20533;-79
2023/06/11 08:42:46;;;;;;;6.07;5.47;;;31.20;37.40;;;;;;5076322;28;20493;-79
2023/06/11 08:45:15;;;;;;;6.00;5.50;;;31.30;37.10;;;;;;5061321;28;20452;-79
2023/06/11 08:47:45;;;;;;;10.57;5.83;;;31.30;37.20;;;;;;5075396;28;20474;-77
2023/06/11 08:50:14;;;;;;;8.10;6.80;;;31.30;37.00;;;;;;5068124;28;20441;-78
2023/06/11 08:52:42;;;;;;;5.83;5.30;;;31.30;36.90;;;;;;5070211;28;20461;-78
2023/06/11 08:55:10;;;;;;;12.77;6.50;;;31.40;37.10;;;;;;5075188;28;20468;-77
2023/06/11 08:57:38;;;;;;;6.63;6.03;;;31.50;36.90;;;;;;5075297;28;20437;-78
2023/06/11 09:00:09;;;;;;;9.93;5.20;;;31.60;37.00;;;;;;5074846;28;20430;-78
2023/06/11 09:02:38;;;;;;;6.63;5.90;;;31.60;37.00;;;;;;5074718;28;20548;-77
2023/06/11 09:05:06;;;;;;;6.30;5.80;;;31.70;37.10;;;;;;5074761;28;20888;-78
2023/06/11 09:07:36;;;;;;;8.53;6.40;;;31.80;36.60;;;;;;5071301;28;20446;-78
2023/06/11 09:10:08;;;;;;;8.03;6.10;;;31.80;37.00;;;;;;5070088;28;20450;-79
2023/06/11 09:12:37;;;;;;;13.10;5.70;;;31.90;37.00;;;;;;5070243;28;20463;-78
2023/06/11 09:15:07;;;;;;;6.50;5.83;;;31.90;36.80;;;;;;5067665;28;20430;-78
2023/06/11 09:17:35;;;;;;;7.20;6.20;;;32.00;36.80;;;;;;5075980;28;20929;-78
2023/06/11 09:20:05;;;;;;;14.30;7.03;;;32.00;37.00;;;;;;5075873;28;20464;-78
2023/06/11 09:22:34;;;;;;;7.00;6.30;;;32.10;37.00;;;;;;5076069;28;20564;-77
2023/06/11 09:25:06;;;;;;;12.30;5.90;;;32.20;36.60;;;;;;5076291;28;20556;-79
2023/06/11 09:27:34;;;;;;;6.90;5.93;;;32.20;37.00;;;;;;5075494;28;20835;-79
2023/06/11 09:30:11;;;;;;;10.63;6.20;;;32.30;36.80;;;;;;5077800;28;20480;-80
2023/06/11 09:32:39;;;;;;;6.60;6.03;;;32.30;36.80;;;;;;5075042;28;20965;-79
2023/06/11 09:35:09;;;;;;;6.13;5.60;;;32.40;36.60;;;;;;5076760;28;20434;-80
2023/06/11 09:37:44;;;;;;;6.63;5.93;;;32.40;36.60;;;;;;5078064;28;20453;-78
2023/06/11 09:40:13;;;;;;;7.73;6.43;;;32.50;36.80;;;;;;5076264;28;20444;-80
2023/06/11 09:42:43;;;;;;;10.13;6.03;;;32.50;36.60;;;;;;5078773;28;20525;-80
2023/06/11 09:45:16;;;;;;;7.53;5.50;;;32.60;37.50;;;;;;5074224;28;20471;-80
2023/06/11 09:47:46;;;;;;;9.27;6.50;;;32.70;36.50;;;;;;5077400;28;20478;-79
2023/06/11 09:50:14;;;;;;;7.00;6.30;;;32.70;36.70;;;;;;5067245;28;20454;-77
2023/06/11 09:52:42;;;;;;;10.83;6.70;;;32.80;36.80;;;;;;5073204;28;20465;-81
2023/06/11 09:55:12;;;;;;;8.23;6.17;;;32.80;36.60;;;;;;5078881;28;20930;-80
2023/06/11 09:57:41;;;;;;;19.27;6.83;;;32.80;36.30;;;;;;5074342;28;20472;-79
2023/06/11 10:00:11;;;;;;;12.00;6.80;;;32.80;36.40;;;;;;5076007;28;20492;-79
2023/06/11 10:02:42;;;;;;;10.00;5.87;;;32.80;36.40;;;;;;5065580;28;20466;-79
2023/06/11 10:05:12;;;;;;;13.70;6.60;;;32.70;36.70;;;;;;5080189;28;20465;-79
2023/06/11 10:07:43;;;;;;;11.13;6.50;;;32.80;36.80;;;;;;5079966;28;20444;-79
2023/06/11 10:10:11;;;;;;;8.70;6.50;;;32.80;36.50;;;;;;5079067;28;20449;-80
2023/06/11 10:12:39;;;;;;;9.73;6.30;;;32.80;36.80;;;;;;5078481;28;20507;-77
2023/06/11 10:15:11;;;;;;;7.60;6.77;;;32.80;36.60;;;;;;5078520;28;20453;-80
2023/06/11 10:17:47;;;;;;;8.77;6.43;;;32.90;36.60;;;;;;5076029;28;20594;-79
2023/06/11 10:20:19;;;;;;;9.40;6.53;;;32.90;36.50;;;;;;5077252;28;20441;-77
2023/06/11 10:22:47;;;;;;;9.53;6.17;;;32.90;36.40;;;;;;5076162;28;20521;-79
2023/06/11 10:25:16;;;;;;;10.00;6.80;;;32.90;36.50;;;;;;5076398;28;20523;-79
2023/06/11 10:27:45;;;;;;;9.27;6.20;;;32.90;36.60;;;;;;5073902;28;20476;-79
2023/06/11 10:30:23;;;;;;;30.37;7.80;;;33.00;36.50;;;;;;5073985;28;20456;-85
2023/06/11 10:32:53;;;;;;;8.40;6.80;;;33.00;36.70;;;;;;5068215;28;20461;-79
2023/06/11 10:35:23;;;;;;;12.87;6.80;;;33.00;36.50;;;;;;5074001;28;20445;-80
2023/06/11 10:37:52;;;;;;;7.40;6.80;;;33.10;36.50;;;;;;5077035;28;21069;-78
2023/06/11 10:40:20;;;;;;;9.13;6.50;;;33.10;36.30;;;;;;5081509;28;20473;-81
2023/06/11 10:42:52;;;;;;;8.50;6.93;;;33.10;36.40;;;;;;5087865;28;20468;-80
2023/06/11 10:45:21;;;;;;;8.70;6.63;;;33.10;36.30;;;;;;5078910;28;20462;-78
2023/06/11 10:47:50;;;;;;;7.33;6.60;;;33.10;36.20;;;;;;5074392;28;20472;-79
2023/06/11 10:50:25;;;;;;;9.23;6.23;;;33.20;36.30;;;;;;5086922;28;20457;-80
2023/06/11 10:52:55;;;;;;;9.00;6.53;;;33.20;36.10;;;;;;5081501;28;20495;-80
2023/06/11 10:55:26;;;;;;;11.90;6.63;;;33.20;36.50;;;;;;5075484;28;20528;-79
2023/06/11 10:57:54;;;;;;;14.40;7.03;;;33.20;36.40;;;;;;5075598;28;20449;-79
2023/06/11 11:00:22;;;;;;;15.27;7.50;;;33.30;35.80;;;;;;5072742;28;20446;-79
2023/06/11 11:02:51;;;;;;;12.77;7.03;;;33.40;36.00;;;;;;5080425;28;20472;-78
2023/06/11 11:05:21;;;;;;;11.13;6.77;;;33.40;36.00;;;;;;5074329;28;20458;-79
2023/06/11 11:07:49;;;;;;;15.80;7.37;;;33.40;36.00;;;;;;5075871;28;20451;-79
2023/06/11 11:10:19;;;;;;;8.40;6.73;;;33.30;35.70;;;;;;5066450;28;20530;-77
2023/06/11 11:12:48;;;;;;;7.30;6.63;;;33.40;35.50;;;;;;5072522;28;20472;-79
2023/06/11 11:15:16;;;;;;;7.40;6.70;;;33.30;35.30;;;;;;5075774;28;20473;-79
2023/06/11 11:17:45;;;;;;;7.80;6.37;;;33.40;35.40;;;;;;5074685;28;20477;-78
2023/06/11 11:20:14;;;;;;;8.27;6.97;;;33.40;35.30;;;;;;5074720;28;20459;-79
2023/06/11 11:22:48;;;;;;;9.10;6.70;;;33.30;35.20;;;;;;5076980;28;20505;-81
2023/06/11 11:25:16;;;;;;;7.50;6.70;;;33.30;35.10;;;;;;5077746;28;20620;-79
2023/06/11 11:27:44;;;;;;;8.20;6.53;;;33.30;35.20;;;;;;5078783;28;20952;-78
2023/06/11 11:30:13;;;;;;;8.37;6.90;;;33.40;35.30;;;;;;5075095;28;20438;-78
2023/06/11 11:32:41;;;;;;;19.37;7.37;;;33.50;35.30;;;;;;5069811;28;20461;-83
2023/06/11 11:35:11;;;;;;;13.03;7.40;;;33.70;36.20;;;;;;5077812;28;20473;-82
2023/06/11 11:37:39;;;;;;;15.60;12.03;;;34.30;35.50;;;;;;5071887;28;20480;-82
2023/06/11 11:40:10;;;;;;;12.77;10.10;;;34.70;34.30;;;;;;5077539;28;20441;-84
2023/06/11 11:42:49;;;;;;;18.53;8.13;;;35.10;33.80;;;;;;5077453;28;20469;-83
2023/06/11 11:45:17;;;;;;;9.97;7.40;;;35.50;33.10;;;;;;5078655;28;20426;-82
2023/06/11 11:47:50;;;;;;;8.97;6.97;;;35.70;32.70;;;;;;5077207;28;20484;-82
2023/06/11 11:50:21;;;;;;;8.57;6.93;;;35.90;32.50;;;;;;5068394;28;20453;-84
2023/06/11 11:53:03;;;;;;;10.63;6.57;;;36.20;32.10;;;;;;5073121;28;20519;-82
2023/06/11 11:55:34;;;;;;;7.57;6.80;;;36.30;31.80;;;;;;5077204;28;20489;-84
2023/06/11 11:58:04;;;;;;;9.20;8.17;;;36.50;31.80;;;;;;5076620;28;20449;-84
2023/06/11 12:00:32;;;;;;;8.40;6.70;;;36.70;31.60;;;;;;5079779;28;20449;-84
2023/06/11 12:03:06;;;;;;;9.20;7.40;;;36.80;31.40;;;;;;5073914;28;20465;-85
2023/06/11 12:05:35;;;;;;;10.33;7.33;;;36.90;31.20;;;;;;5073951;28;20498;-83
2023/06/11 12:08:03;;;;;;;15.10;10.43;;;37.00;31.00;;;;;;5077430;28;20442;-83
2023/06/11 12:10:33;;;;;;;13.53;10.83;;;37.10;30.80;;;;;;5076907;28;20452;-82
2023/06/11 12:13:01;;;;;;;12.60;8.70;;;37.20;30.60;;;;;;5074559;28;20542;-83
2023/06/11 12:15:29;;;;;;;8.63;7.60;;;37.30;30.50;;;;;;5072031;28;20466;-82
2023/06/11 12:17:57;;;;;;;9.63;7.20;;;37.40;30.30;;;;;;5076789;28;20514;-83
2023/06/11 12:20:25;;;;;;;7.20;6.50;;;37.50;30.00;;;;;;5076368;28;20461;-83
2023/06/11 12:22:52;;;;;;;8.67;6.17;;;37.60;30.00;;;;;;5077778;28;20510;-83
2023/06/11 12:25:21;;;;;;;7.13;5.43;;;37.60;29.90;;;;;;5070380;28;20456;-83
2023/06/11 12:27:51;;;;;;;6.37;5.60;;;37.70;29.10;;;;;;5073199;28;20491;-83
2023/06/11 12:30:19;;;;;;;6.20;5.70;;;37.70;28.90;;;;;;5070974;28;20520;-84
2023/06/11 12:32:47;;;;;;;8.80;6.50;;;37.70;28.80;;;;;;5077820;28;20527;-84
2023/06/11 12:35:15;;;;;;;12.87;6.87;;;37.80;28.50;;;;;;5074926;28;20553;-84
2023/06/11 12:37:45;;;;;;;7.13;6.43;;;37.80;28.30;;;;;;5076968;28;20503;-82
2023/06/11 12:40:13;;;;;;;7.73;5.87;;;38.00;28.10;;;;;;5074188;28;20448;-82
2023/06/11 12:42:42;;;;;;;8.50;6.80;;;37.90;28.00;;;;;;5069339;28;20472;-80
2023/06/11 12:45:12;;;;;;;7.00;6.30;;;38.00;27.90;;;;;;5064533;28;20533;-80
2023/06/11 12:47:39;;;;;;;6.60;6.00;;;38.10;28.00;;;;;;5076061;28;20442;-77
2023/06/11 12:50:08;;;;;;;7.93;6.70;;;38.10;27.70;;;;;;5067035;28;20454;-78
2023/06/11 12:52:39;;;;;;;7.00;6.30;;;38.10;27.50;;;;;;5073994;28;20453;-78
2023/06/11 12:55:07;;;;;;;6.73;5.57;;;38.10;27.50;;;;;;5070495;28;20469;-80
2023/06/11 12:57:36;;;;;;;7.50;5.20;;;38.10;26.90;;;;;;5075322;28;20995;-79